sensor_id;sensor_type;location;lat;lon;timestamp;pressure;altitude;pressure_sealevel;temperature;humidity
25722;BME280;13578;53.450;15.496;2023-04-19T00:01:40;100927.50;;;3.06;100.00
25722;BME280;13578;53.450;15.496;2023-04-19T00:04:41;100902.63;;;2.94;100.00
25722;BME280;13578;53.450;15.496;2023-04-19T00:07:44;100896.50;;;2.89;100.00
25722;BME280;13578;53.450;15.496;2023-04-19T00:10:44;100902.06;;;2.86;100.00
25722;BME280;13578;53.450;15.496;2023-04-19T00:13:45;100905.91;;;3.02;100.00
25722;BME280;13578;53.450;15.496;2023-04-19T00:16:46;100893.13;;;2.84;100.00
25722;BME280;13578;53.450;15.496;2023-04-19T00:19:46;100888.88;;;2.77;100.00
25722;BME280;13578;53.450;15.496;2023-04-19T00:22:47;100888.63;;;2.83;100.00
25722;BME280;13578;53.450;15.496;2023-04-19T00:25:48;100876.97;;;2.81;100.00
25722;BME280;13578;53.450;15.496;2023-04-19T00:28:49;100873.06;;;2.66;100.00
25722;BME280;13578;53.450;15.496;2023-04-19T00:31:49;100858.16;;;2.54;100.00
25722;BME280;13578;53.450;15.496;2023-04-19T00:34:50;100861.44;;;2.62;100.00
25722;BME280;13578;53.450;15.496;2023-04-19T00:37:51;100864.75;;;2.70;100.00
25722;BME280;13578;53.450;15.496;2023-04-19T00:40:51;100845.03;;;2.65;100.00
25722;BME280;13578;53.450;15.496;2023-04-19T00:43:52;100831.13;;;2.52;100.00
25722;BME280;13578;53.450;15.496;2023-04-19T00:46:53;100837.88;;;2.64;100.00
25722;BME280;13578;53.450;15.496;2023-04-19T00:49:55;100832.56;;;2.61;100.00
25722;BME280;13578;53.450;15.496;2023-04-19T00:52:56;100831.94;;;2.54;100.00
25722;BME280;13578;53.450;15.496;2023-04-19T00:55:59;100813.28;;;2.47;100.00
25722;BME280;13578;53.450;15.496;2023-04-19T00:59:01;100819.31;;;2.53;100.00
25722;BME280;13578;53.450;15.496;2023-04-19T01:02:02;100810.50;;;2.48;100.00
25722;BME280;13578;53.450;15.496;2023-04-19T01:05:03;100812.38;;;2.46;100.00
25722;BME280;13578;53.450;15.496;2023-04-19T01:08:03;100809.88;;;2.42;100.00
25722;BME280;13578;53.450;15.496;2023-04-19T01:11:05;100791.28;;;2.32;100.00
25722;BME280;13578;53.450;15.496;2023-04-19T01:14:07;100786.78;;;2.31;100.00
25722;BME280;13578;53.450;15.496;2023-04-19T01:17:07;100786.09;;;2.26;100.00
25722;BME280;13578;53.450;15.496;2023-04-19T01:20:08;100786.09;;;2.26;100.00
25722;BME280;13578;53.450;15.496;2023-04-19T01:23:09;100786.91;;;2.28;100.00
25722;BME280;13578;53.450;15.496;2023-04-19T01:26:11;100773.59;;;2.22;100.00
25722;BME280;13578;53.450;15.496;2023-04-19T01:29:12;100774.69;;;2.18;100.00
25722;BME280;13578;53.450;15.496;2023-04-19T01:32:13;100765.72;;;2.16;100.00
25722;BME280;13578;53.450;15.496;2023-04-19T01:35:13;100761.22;;;2.16;100.00
25722;BME280;13578;53.450;15.496;2023-04-19T01:38:15;100769.13;;;2.21;100.00
25722;BME280;13578;53.450;15.496;2023-04-19T01:41:16;100773.78;;;2.17;100.00
25722;BME280;13578;53.450;15.496;2023-04-19T01:44:17;100767.69;;;2.12;100.00
25722;BME280;13578;53.450;15.496;2023-04-19T01:47:17;100741.69;;;2.08;100.00
25722;BME280;13578;53.450;15.496;2023-04-19T01:50:18;100745.44;;;2.04;100.00
25722;BME280;13578;53.450;15.496;2023-04-19T01:53:19;100737.56;;;1.98;100.00
25722;BME280;13578;53.450;15.496;2023-04-19T01:56:20;100731.03;;;2.03;100.00
25722;BME280;13578;53.450;15.496;2023-04-19T01:59:23;100722.00;;;2.03;100.00
25722;BME280;13578;53.450;15.496;2023-04-19T02:02:24;100740.97;;;2.03;100.00
25722;BME280;13578;53.450;15.496;2023-04-19T02:05:25;100733.03;;;1.98;100.00
25722;BME280;13578;53.450;15.496;2023-04-19T02:08:25;100720.38;;;1.99;100.00
25722;BME280;13578;53.450;15.496;2023-04-19T02:11:26;100731.84;;;2.05;100.00
25722;BME280;13578;53.450;15.496;2023-04-19T02:14:27;100722.75;;;2.06;100.00
25722;BME280;13578;53.450;15.496;2023-04-19T02:17:28;100707.13;;;1.91;100.00
25722;BME280;13578;53.450;15.496;2023-04-19T02:20:29;100714.84;;;2.02;100.00
25722;BME280;13578;53.450;15.496;2023-04-19T02:23:30;100716.78;;;1.98;100.00
25722;BME280;13578;53.450;15.496;2023-04-19T02:26:31;100705.97;;;1.98;100.00
25722;BME280;13578;53.450;15.496;2023-04-19T02:29:32;100706.41;;;2.10;100.00
25722;BME280;13578;53.450;15.496;2023-04-19T02:32:33;100701.22;;;2.03;100.00
25722;BME280;13578;53.450;15.496;2023-04-19T02:35:33;100698.38;;;2.06;100.00
25722;BME280;13578;53.450;15.496;2023-04-19T02:38:34;100708.28;;;2.08;100.00
25722;BME280;13578;53.450;15.496;2023-04-19T02:41:35;100700.97;;;2.10;100.00
25722;BME280;13578;53.450;15.496;2023-04-19T02:44:36;100690.41;;;2.03;100.00
25722;BME280;13578;53.450;15.496;2023-04-19T02:47:36;100669.88;;;1.98;100.00
25722;BME280;13578;53.450;15.496;2023-04-19T02:50:37;100663.59;;;1.97;100.00
25722;BME280;13578;53.450;15.496;2023-04-19T02:53:38;100675.22;;;1.99;100.00
25722;BME280;13578;53.450;15.496;2023-04-19T02:56:38;100657.75;;;2.06;100.00
25722;BME280;13578;53.450;15.496;2023-04-19T02:59:39;100648.97;;;2.01;100.00
25722;BME280;13578;53.450;15.496;2023-04-19T03:02:41;100646.06;;;2.06;100.00
25722;BME280;13578;53.450;15.496;2023-04-19T03:05:42;100648.19;;;1.98;100.00
25722;BME280;13578;53.450;15.496;2023-04-19T03:08:43;100661.19;;;2.12;100.00
25722;BME280;13578;53.450;15.496;2023-04-19T03:11:44;100638.13;;;2.01;100.00
25722;BME280;13578;53.450;15.496;2023-04-19T03:14:45;100627.97;;;2.06;100.00
25722;BME280;13578;53.450;15.496;2023-04-19T03:17:45;100621.81;;;2.03;100.00
25722;BME280;13578;53.450;15.496;2023-04-19T03:20:46;100623.53;;;2.05;100.00
25722;BME280;13578;53.450;15.496;2023-04-19T03:23:46;100618.97;;;2.06;100.00
25722;BME280;13578;53.450;15.496;2023-04-19T03:26:47;100638.00;;;2.04;100.00
25722;BME280;13578;53.450;15.496;2023-04-19T03:29:48;100600.59;;;1.92;100.00
25722;BME280;13578;53.450;15.496;2023-04-19T03:32:48;100608.34;;;2.01;100.00
25722;BME280;13578;53.450;15.496;2023-04-19T03:35:51;100601.97;;;2.02;100.00
25722;BME280;13578;53.450;15.496;2023-04-19T03:38:52;100600.78;;;2.10;100.00
25722;BME280;13578;53.450;15.496;2023-04-19T03:41:52;100600.97;;;2.05;100.00
25722;BME280;13578;53.450;15.496;2023-04-19T03:44:53;100592.91;;;2.03;100.00
25722;BME280;13578;53.450;15.496;2023-04-19T03:47:54;100603.88;;;2.00;100.00
25722;BME280;13578;53.450;15.496;2023-04-19T03:50:55;100587.50;;;2.03;100.00
25722;BME280;13578;53.450;15.496;2023-04-19T03:53:55;100596.97;;;2.14;100.00
25722;BME280;13578;53.450;15.496;2023-04-19T03:56:56;100594.59;;;2.06;100.00
25722;BME280;13578;53.450;15.496;2023-04-19T03:59:57;100584.13;;;1.98;100.00
25722;BME280;13578;53.450;15.496;2023-04-19T04:02:57;100606.13;;;2.11;100.00
25722;BME280;13578;53.450;15.496;2023-04-19T04:05:58;100593.66;;;2.07;100.00
25722;BME280;13578;53.450;15.496;2023-04-19T04:08:59;100599.19;;;2.26;100.00
25722;BME280;13578;53.450;15.496;2023-04-19T04:12:00;100591.34;;;2.20;100.00
25722;BME280;13578;53.450;15.496;2023-04-19T04:15:02;100583.97;;;2.24;100.00
25722;BME280;13578;53.450;15.496;2023-04-19T04:18:03;100586.84;;;2.19;100.00
25722;BME280;13578;53.450;15.496;2023-04-19T04:21:04;100587.88;;;2.37;100.00
25722;BME280;13578;53.450;15.496;2023-04-19T04:24:05;100591.94;;;2.47;100.00
25722;BME280;13578;53.450;15.496;2023-04-19T04:27:07;100592.41;;;2.57;100.00
25722;BME280;13578;53.450;15.496;2023-04-19T04:30:10;100582.78;;;2.50;100.00
25722;BME280;13578;53.450;15.496;2023-04-19T04:33:10;100574.47;;;2.54;100.00
25722;BME280;13578;53.450;15.496;2023-04-19T04:36:11;100584.81;;;2.65;100.00
25722;BME280;13578;53.450;15.496;2023-04-19T04:39:12;100589.84;;;2.75;100.00
25722;BME280;13578;53.450;15.496;2023-04-19T04:42:13;100597.06;;;2.95;100.00
25722;BME280;13578;53.450;15.496;2023-04-19T04:45:13;100577.44;;;2.90;100.00
25722;BME280;13578;53.450;15.496;2023-04-19T04:48:17;100574.22;;;3.00;100.00
25722;BME280;13578;53.450;15.496;2023-04-19T04:51:18;100569.81;;;3.17;100.00
25722;BME280;13578;53.450;15.496;2023-04-19T04:54:19;100597.91;;;3.16;100.00
25722;BME280;13578;53.450;15.496;2023-04-19T04:57:19;100581.50;;;3.19;100.00
25722;BME280;13578;53.450;15.496;2023-04-19T05:00:21;100564.09;;;3.23;100.00
25722;BME280;13578;53.450;15.496;2023-04-19T05:03:22;100589.22;;;3.28;100.00
25722;BME280;13578;53.450;15.496;2023-04-19T05:06:22;100572.94;;;3.28;100.00
25722;BME280;13578;53.450;15.496;2023-04-19T05:09:23;100575.66;;;3.47;100.00
25722;BME280;13578;53.450;15.496;2023-04-19T05:12:24;100571.59;;;3.56;100.00
25722;BME280;13578;53.450;15.496;2023-04-19T05:15:25;100576.16;;;3.37;100.00
25722;BME280;13578;53.450;15.496;2023-04-19T05:18:25;100573.78;;;3.48;100.00
25722;BME280;13578;53.450;15.496;2023-04-19T05:21:26;100580.69;;;3.55;100.00
25722;BME280;13578;53.450;15.496;2023-04-19T05:24:26;100574.91;;;3.63;100.00
25722;BME280;13578;53.450;15.496;2023-04-19T05:27:27;100581.25;;;3.81;100.00
25722;BME280;13578;53.450;15.496;2023-04-19T05:30:28;100583.97;;;3.81;100.00
25722;BME280;13578;53.450;15.496;2023-04-19T05:33:28;100579.47;;;3.99;100.00
25722;BME280;13578;53.450;15.496;2023-04-19T05:36:29;100589.28;;;4.02;100.00
25722;BME280;13578;53.450;15.496;2023-04-19T05:39:31;100576.25;;;4.08;100.00
25722;BME280;13578;53.450;15.496;2023-04-19T05:42:32;100567.72;;;4.16;100.00
25722;BME280;13578;53.450;15.496;2023-04-19T05:45:32;100564.78;;;4.21;100.00
25722;BME280;13578;53.450;15.496;2023-04-19T05:48:33;100568.59;;;4.17;100.00
25722;BME280;13578;53.450;15.496;2023-04-19T05:51:33;100569.09;;;4.25;100.00
25722;BME280;13578;53.450;15.496;2023-04-19T05:54:34;100586.69;;;4.35;100.00
25722;BME280;13578;53.450;15.496;2023-04-19T05:57:35;100572.44;;;4.48;100.00
25722;BME280;13578;53.450;15.496;2023-04-19T06:00:35;100565.66;;;4.39;100.00
25722;BME280;13578;53.450;15.496;2023-04-19T06:03:37;100570.06;;;4.41;100.00
25722;BME280;13578;53.450;15.496;2023-04-19T06:06:37;100574.03;;;4.52;100.00
25722;BME280;13578;53.450;15.496;2023-04-19T06:09:39;100566.13;;;4.65;100.00
25722;BME280;13578;53.450;15.496;2023-04-19T06:12:39;100552.84;;;4.76;100.00
25722;BME280;13578;53.450;15.496;2023-04-19T06:15:40;100570.97;;;4.93;100.00
25722;BME280;13578;53.450;15.496;2023-04-19T06:18:41;100559.06;;;4.78;100.00
25722;BME280;13578;53.450;15.496;2023-04-19T06:21:42;100557.97;;;4.98;100.00
25722;BME280;13578;53.450;15.496;2023-04-19T06:24:44;100559.88;;;4.96;100.00
25722;BME280;13578;53.450;15.496;2023-04-19T06:27:45;100577.97;;;5.31;100.00
25722;BME280;13578;53.450;15.496;2023-04-19T06:30:45;100575.19;;;5.64;100.00
25722;BME280;13578;53.450;15.496;2023-04-19T06:33:47;100570.53;;;5.50;100.00
25722;BME280;13578;53.450;15.496;2023-04-19T06:36:47;100568.59;;;5.68;100.00
25722;BME280;13578;53.450;15.496;2023-04-19T06:39:48;100564.19;;;5.66;100.00
25722;BME280;13578;53.450;15.496;2023-04-19T06:42:49;100575.28;;;5.47;100.00
25722;BME280;13578;53.450;15.496;2023-04-19T06:45:57;100563.41;;;5.48;100.00
25722;BME280;13578;53.450;15.496;2023-04-19T06:48:58;100565.59;;;5.73;100.00
25722;BME280;13578;53.450;15.496;2023-04-19T06:51:58;100573.41;;;5.95;100.00
25722;BME280;13578;53.450;15.496;2023-04-19T06:54:59;100572.63;;;5.93;100.00
25722;BME280;13578;53.450;15.496;2023-04-19T06:58:00;100562.28;;;6.00;100.00
25722;BME280;13578;53.450;15.496;2023-04-19T07:01:02;100563.69;;;6.07;100.00
25722;BME280;13578;53.450;15.496;2023-04-19T07:04:03;100541.88;;;6.07;100.00
25722;BME280;13578;53.450;15.496;2023-04-19T07:07:04;100527.28;;;6.08;100.00
25722;BME280;13578;53.450;15.496;2023-04-19T07:10:05;100533.38;;;6.28;100.00
25722;BME280;13578;53.450;15.496;2023-04-19T07:13:06;100537.06;;;6.27;100.00
25722;BME280;13578;53.450;15.496;2023-04-19T07:16:07;100531.47;;;6.44;100.00
25722;BME280;13578;53.450;15.496;2023-04-19T07:19:07;100521.56;;;6.72;100.00
25722;BME280;13578;53.450;15.496;2023-04-19T07:22:08;100512.72;;;6.83;100.00
25722;BME280;13578;53.450;15.496;2023-04-19T07:25:09;100509.81;;;6.86;100.00
25722;BME280;13578;53.450;15.496;2023-04-19T07:28:09;100508.50;;;6.92;100.00
25722;BME280;13578;53.450;15.496;2023-04-19T07:31:15;100524.41;;;7.28;100.00
25722;BME280;13578;53.450;15.496;2023-04-19T07:34:16;100504.97;;;7.33;100.00
25722;BME280;13578;53.450;15.496;2023-04-19T07:37:16;100506.59;;;7.50;100.00
25722;BME280;13578;53.450;15.496;2023-04-19T07:40:17;100514.88;;;7.63;100.00
25722;BME280;13578;53.450;15.496;2023-04-19T07:43:18;100495.81;;;7.61;100.00
25722;BME280;13578;53.450;15.496;2023-04-19T07:46:19;100489.13;;;7.80;100.00
25722;BME280;13578;53.450;15.496;2023-04-19T07:49:19;100491.03;;;7.92;100.00
25722;BME280;13578;53.450;15.496;2023-04-19T07:52:20;100497.91;;;7.85;100.00
25722;BME280;13578;53.450;15.496;2023-04-19T07:55:21;100500.63;;;7.85;100.00
25722;BME280;13578;53.450;15.496;2023-04-19T07:58:21;100494.41;;;8.23;100.00
25722;BME280;13578;53.450;15.496;2023-04-19T08:01:22;100486.03;;;7.99;100.00
25722;BME280;13578;53.450;15.496;2023-04-19T08:04:23;100482.59;;;7.83;100.00
25722;BME280;13578;53.450;15.496;2023-04-19T08:07:23;100480.22;;;7.91;100.00
25722;BME280;13578;53.450;15.496;2023-04-19T08:10:25;100473.47;;;7.97;100.00
25722;BME280;13578;53.450;15.496;2023-04-19T08:13:28;100456.94;;;7.98;100.00
25722;BME280;13578;53.450;15.496;2023-04-19T08:16:29;100473.53;;;8.35;100.00
25722;BME280;13578;53.450;15.496;2023-04-19T08:19:30;100459.84;;;8.35;100.00
25722;BME280;13578;53.450;15.496;2023-04-19T08:22:31;100469.50;;;8.54;100.00
25722;BME280;13578;53.450;15.496;2023-04-19T08:25:31;100463.19;;;8.66;100.00
25722;BME280;13578;53.450;15.496;2023-04-19T08:28:32;100439.66;;;8.51;100.00
25722;BME280;13578;53.450;15.496;2023-04-19T08:31:33;100439.97;;;8.59;100.00
25722;BME280;13578;53.450;15.496;2023-04-19T08:34:38;100437.53;;;8.67;100.00
25722;BME280;13578;53.450;15.496;2023-04-19T08:37:39;100427.91;;;8.74;100.00
25722;BME280;13578;53.450;15.496;2023-04-19T08:40:48;100404.94;;;8.64;100.00
25722;BME280;13578;53.450;15.496;2023-04-19T08:43:51;100410.56;;;9.00;100.00
25722;BME280;13578;53.450;15.496;2023-04-19T08:46:56;100392.34;;;9.12;100.00
25722;BME280;13578;53.450;15.496;2023-04-19T08:50:00;100402.19;;;9.14;100.00
25722;BME280;13578;53.450;15.496;2023-04-19T08:53:01;100395.81;;;9.27;100.00
25722;BME280;13578;53.450;15.496;2023-04-19T08:56:02;100386.00;;;9.35;100.00
25722;BME280;13578;53.450;15.496;2023-04-19T08:59:03;100386.25;;;9.57;100.00
25722;BME280;13578;53.450;15.496;2023-04-19T09:02:03;100372.38;;;9.47;100.00
25722;BME280;13578;53.450;15.496;2023-04-19T09:05:05;100374.38;;;9.45;100.00
25722;BME280;13578;53.450;15.496;2023-04-19T09:08:28;100340.91;;;9.28;100.00
25722;BME280;13578;53.450;15.496;2023-04-19T09:11:35;100351.56;;;9.20;99.86
25722;BME280;13578;53.450;15.496;2023-04-19T09:14:43;100342.84;;;9.15;100.00
25722;BME280;13578;53.450;15.496;2023-04-19T09:18:02;100349.13;;;9.28;100.00
25722;BME280;13578;53.450;15.496;2023-04-19T09:21:04;100350.53;;;9.69;100.00
25722;BME280;13578;53.450;15.496;2023-04-19T09:24:05;100379.91;;;10.03;100.00
25722;BME280;13578;53.450;15.496;2023-04-19T09:27:06;100349.59;;;9.82;100.00
25722;BME280;13578;53.450;15.496;2023-04-19T09:30:08;100341.53;;;9.92;100.00
25722;BME280;13578;53.450;15.496;2023-04-19T09:33:08;100314.72;;;9.95;96.27
25722;BME280;13578;53.450;15.496;2023-04-19T09:36:09;100335.63;;;9.85;97.82
25722;BME280;13578;53.450;15.496;2023-04-19T09:39:10;100335.19;;;9.91;99.15
25722;BME280;13578;53.450;15.496;2023-04-19T09:42:11;100336.22;;;10.24;99.13
25722;BME280;13578;53.450;15.496;2023-04-19T09:45:12;100316.38;;;10.09;96.33
25722;BME280;13578;53.450;15.496;2023-04-19T09:48:12;100347.63;;;10.07;97.43
25722;BME280;13578;53.450;15.496;2023-04-19T09:51:13;100329.69;;;9.91;99.42
25722;BME280;13578;53.450;15.496;2023-04-19T09:54:15;100321.34;;;10.04;98.48
25722;BME280;13578;53.450;15.496;2023-04-19T09:57:16;100300.41;;;9.92;94.50
25722;BME280;13578;53.450;15.496;2023-04-19T10:00:17;100324.94;;;9.93;96.72
25722;BME280;13578;53.450;15.496;2023-04-19T10:03:18;100306.72;;;9.81;94.21
25722;BME280;13578;53.450;15.496;2023-04-19T10:06:21;100304.97;;;9.80;95.63
25722;BME280;13578;53.450;15.496;2023-04-19T10:09:22;100303.78;;;9.60;96.01
25722;BME280;13578;53.450;15.496;2023-04-19T10:12:24;100307.63;;;9.46;96.61
25722;BME280;13578;53.450;15.496;2023-04-19T10:15:26;100300.63;;;9.42;96.23
25722;BME280;13578;53.450;15.496;2023-04-19T10:18:28;100303.06;;;9.33;96.04
25722;BME280;13578;53.450;15.496;2023-04-19T10:21:30;100322.59;;;9.53;100.00
25722;BME280;13578;53.450;15.496;2023-04-19T10:24:34;100316.13;;;9.54;100.00
25722;BME280;13578;53.450;15.496;2023-04-19T10:27:35;100321.97;;;9.61;100.00
25722;BME280;13578;53.450;15.496;2023-04-19T10:31:00;100301.59;;;9.41;98.29
25722;BME280;13578;53.450;15.496;2023-04-19T10:34:01;100304.72;;;9.36;99.93
25722;BME280;13578;53.450;15.496;2023-04-19T10:37:01;100305.25;;;9.41;96.73
25722;BME280;13578;53.450;15.496;2023-04-19T10:40:02;100280.50;;;9.54;99.54
25722;BME280;13578;53.450;15.496;2023-04-19T10:43:14;100265.84;;;9.78;95.71
25722;BME280;13578;53.450;15.496;2023-04-19T10:49:22;100261.41;;;10.11;96.80
25722;BME280;13578;53.450;15.496;2023-04-19T10:52:26;100242.31;;;9.98;92.99
25722;BME280;13578;53.450;15.496;2023-04-19T10:55:32;100245.31;;;9.95;96.12
25722;BME280;13578;53.450;15.496;2023-04-19T11:02:28;100248.28;;;9.92;97.94
25722;BME280;13578;53.450;15.496;2023-04-19T11:09:09;100221.00;;;9.67;97.70
25722;BME280;13578;53.450;15.496;2023-04-19T11:12:14;100242.66;;;9.70;99.54
25722;BME280;13578;53.450;15.496;2023-04-19T11:15:15;100224.84;;;9.65;97.61
25722;BME280;13578;53.450;15.496;2023-04-19T11:18:18;100263.84;;;9.80;100.00
25722;BME280;13578;53.450;15.496;2023-04-19T11:21:19;100246.44;;;10.15;100.00
25722;BME280;13578;53.450;15.496;2023-04-19T11:24:20;100217.25;;;10.14;98.90
25722;BME280;13578;53.450;15.496;2023-04-19T11:27:21;100234.09;;;10.21;99.46
25722;BME280;13578;53.450;15.496;2023-04-19T11:30:27;100240.44;;;10.10;100.00
25722;BME280;13578;53.450;15.496;2023-04-19T11:33:32;100240.22;;;9.90;100.00
25722;BME280;13578;53.450;15.496;2023-04-19T11:36:33;100240.69;;;10.07;100.00
25722;BME280;13578;53.450;15.496;2023-04-19T11:39:44;100257.66;;;10.46;100.00
25722;BME280;13578;53.450;15.496;2023-04-19T11:42:53;100227.75;;;10.20;100.00
25722;BME280;13578;53.450;15.496;2023-04-19T11:45:54;100241.94;;;10.14;100.00
25722;BME280;13578;53.450;15.496;2023-04-19T11:48:55;100239.59;;;10.09;100.00
25722;BME280;13578;53.450;15.496;2023-04-19T11:51:59;100245.94;;;10.21;100.00
25722;BME280;13578;53.450;15.496;2023-04-19T11:55:17;100240.34;;;10.23;100.00
25722;BME280;13578;53.450;15.496;2023-04-19T12:01:31;100235.22;;;9.95;100.00
25722;BME280;13578;53.450;15.496;2023-04-19T12:04:32;100226.59;;;9.77;100.00
25722;BME280;13578;53.450;15.496;2023-04-19T12:07:32;100255.13;;;9.75;100.00
25722;BME280;13578;53.450;15.496;2023-04-19T12:10:34;100244.34;;;9.37;100.00
25722;BME280;13578;53.450;15.496;2023-04-19T12:13:35;100240.31;;;9.30;100.00
25722;BME280;13578;53.450;15.496;2023-04-19T12:16:36;100253.03;;;9.31;100.00
25722;BME280;13578;53.450;15.496;2023-04-19T12:19:45;100242.78;;;9.22;100.00
25722;BME280;13578;53.450;15.496;2023-04-19T12:22:46;100256.00;;;9.28;100.00
25722;BME280;13578;53.450;15.496;2023-04-19T12:25:47;100241.44;;;9.03;100.00
25722;BME280;13578;53.450;15.496;2023-04-19T12:28:48;100230.84;;;9.23;100.00
25722;BME280;13578;53.450;15.496;2023-04-19T12:31:48;100239.09;;;9.34;100.00
25722;BME280;13578;53.450;15.496;2023-04-19T12:34:49;100233.94;;;9.18;100.00
25722;BME280;13578;53.450;15.496;2023-04-19T12:37:52;100217.38;;;9.20;100.00
25722;BME280;13578;53.450;15.496;2023-04-19T12:40:52;100221.09;;;9.19;100.00
25722;BME280;13578;53.450;15.496;2023-04-19T12:43:53;100222.72;;;9.21;100.00
25722;BME280;13578;53.450;15.496;2023-04-19T12:46:53;100230.84;;;9.23;100.00
25722;BME280;13578;53.450;15.496;2023-04-19T12:49:56;100219.28;;;9.31;100.00
25722;BME280;13578;53.450;15.496;2023-04-19T12:52:57;100241.25;;;9.18;100.00
25722;BME280;13578;53.450;15.496;2023-04-19T12:55:57;100232.88;;;9.08;100.00
25722;BME280;13578;53.450;15.496;2023-04-19T12:58:58;100251.22;;;9.19;100.00
25722;BME280;13578;53.450;15.496;2023-04-19T13:01:58;100224.63;;;8.97;100.00
25722;BME280;13578;53.450;15.496;2023-04-19T13:04:59;100233.06;;;8.94;100.00
25722;BME280;13578;53.450;15.496;2023-04-19T13:08:00;100239.97;;;9.11;100.00
25722;BME280;13578;53.450;15.496;2023-04-19T13:11:00;100215.28;;;8.88;100.00
25722;BME280;13578;53.450;15.496;2023-04-19T13:14:02;100217.31;;;8.73;100.00
25722;BME280;13578;53.450;15.496;2023-04-19T13:17:02;100241.00;;;8.85;100.00
25722;BME280;13578;53.450;15.496;2023-04-19T13:20:03;100249.47;;;8.82;100.00
25722;BME280;13578;53.450;15.496;2023-04-19T13:23:05;100256.59;;;8.96;100.00
25722;BME280;13578;53.450;15.496;2023-04-19T13:26:06;100264.88;;;8.46;100.00
25722;BME280;13578;53.450;15.496;2023-04-19T13:29:06;100273.47;;;8.03;100.00
25722;BME280;13578;53.450;15.496;2023-04-19T13:32:10;100267.13;;;8.02;100.00
25722;BME280;13578;53.450;15.496;2023-04-19T13:35:11;100263.19;;;7.93;100.00
25722;BME280;13578;53.450;15.496;2023-04-19T13:38:12;100276.19;;;7.77;100.00
25722;BME280;13578;53.450;15.496;2023-04-19T13:41:12;100258.38;;;7.71;100.00
25722;BME280;13578;53.450;15.496;2023-04-19T13:44:13;100256.75;;;7.69;100.00
25722;BME280;13578;53.450;15.496;2023-04-19T13:47:13;100241.78;;;7.61;100.00
25722;BME280;13578;53.450;15.496;2023-04-19T13:50:14;100245.69;;;7.44;100.00
25722;BME280;13578;53.450;15.496;2023-04-19T13:53:15;100252.25;;;7.42;100.00
25722;BME280;13578;53.450;15.496;2023-04-19T13:56:15;100249.44;;;7.69;100.00
25722;BME280;13578;53.450;15.496;2023-04-19T13:59:16;100244.72;;;7.45;100.00
25722;BME280;13578;53.450;15.496;2023-04-19T14:02:16;100253.56;;;7.49;100.00
25722;BME280;13578;53.450;15.496;2023-04-19T14:05:17;100254.75;;;7.32;100.00
25722;BME280;13578;53.450;15.496;2023-04-19T14:08:17;100261.69;;;7.10;100.00
25722;BME280;13578;53.450;15.496;2023-04-19T14:11:18;100240.59;;;6.99;100.00
25722;BME280;13578;53.450;15.496;2023-04-19T14:14:19;100250.38;;;6.89;100.00
25722;BME280;13578;53.450;15.496;2023-04-19T14:17:20;100245.44;;;6.81;100.00
25722;BME280;13578;53.450;15.496;2023-04-19T14:20:21;100252.91;;;6.65;100.00
25722;BME280;13578;53.450;15.496;2023-04-19T14:23:21;100251.38;;;6.61;100.00
25722;BME280;13578;53.450;15.496;2023-04-19T14:26:22;100246.09;;;6.58;100.00
25722;BME280;13578;53.450;15.496;2023-04-19T14:29:23;100261.19;;;6.63;100.00
25722;BME280;13578;53.450;15.496;2023-04-19T14:32:23;100257.38;;;6.66;100.00
25722;BME280;13578;53.450;15.496;2023-04-19T14:35:24;100248.16;;;6.54;100.00
25722;BME280;13578;53.450;15.496;2023-04-19T14:38:25;100250.50;;;6.46;100.00
25722;BME280;13578;53.450;15.496;2023-04-19T14:41:25;100252.38;;;6.45;100.00
25722;BME280;13578;53.450;15.496;2023-04-19T14:44:26;100252.44;;;6.44;100.00
25722;BME280;13578;53.450;15.496;2023-04-19T14:47:27;100258.00;;;6.42;100.00
25722;BME280;13578;53.450;15.496;2023-04-19T14:50:27;100249.03;;;6.40;100.00
25722;BME280;13578;53.450;15.496;2023-04-19T14:53:29;100256.28;;;6.27;100.00
25722;BME280;13578;53.450;15.496;2023-04-19T14:56:29;100272.84;;;6.24;100.00
25722;BME280;13578;53.450;15.496;2023-04-19T14:59:30;100254.16;;;6.17;100.00
25722;BME280;13578;53.450;15.496;2023-04-19T15:02:31;100253.00;;;6.22;100.00
25722;BME280;13578;53.450;15.496;2023-04-19T15:05:33;100244.03;;;6.05;100.00
25722;BME280;13578;53.450;15.496;2023-04-19T15:08:35;100253.00;;;6.07;100.00
25722;BME280;13578;53.450;15.496;2023-04-19T15:11:36;100248.81;;;6.01;100.00
25722;BME280;13578;53.450;15.496;2023-04-19T15:14:37;100249.50;;;6.05;100.00
25722;BME280;13578;53.450;15.496;2023-04-19T15:17:38;100248.22;;;5.96;100.00
25722;BME280;13578;53.450;15.496;2023-04-19T15:20:41;100257.25;;;5.97;100.00
25722;BME280;13578;53.450;15.496;2023-04-19T15:23:41;100248.69;;;5.88;100.00
25722;BME280;13578;53.450;15.496;2023-04-19T15:26:42;100259.97;;;5.97;100.00
25722;BME280;13578;53.450;15.496;2023-04-19T15:29:46;100254.91;;;5.91;100.00
25722;BME280;13578;53.450;15.496;2023-04-19T15:32:47;100264.56;;;5.96;100.00
25722;BME280;13578;53.450;15.496;2023-04-19T15:35:50;100257.25;;;5.97;100.00
25722;BME280;13578;53.450;15.496;2023-04-19T15:38:51;100266.25;;;5.99;100.00
25722;BME280;13578;53.450;15.496;2023-04-19T15:41:51;100270.31;;;6.06;100.00
25722;BME280;13578;53.450;15.496;2023-04-19T15:44:52;100265.91;;;5.89;100.00
25722;BME280;13578;53.450;15.496;2023-04-19T15:47:52;100263.09;;;5.91;100.00
25722;BME280;13578;53.450;15.496;2023-04-19T15:50:53;100263.88;;;5.93;100.00